createdAt,value
2023-04-16T00:02:12.768Z,98791.63
2023-04-16T00:05:15.168Z,98788.13
2023-04-16T00:08:17.296Z,98787.31
2023-04-16T00:11:19.302Z,98783.22
2023-04-16T00:14:21.332Z,98789.66
2023-04-16T00:17:23.567Z,98793.25
2023-04-16T00:20:25.674Z,98792.59
2023-04-16T00:23:27.817Z,98795.84
2023-04-16T00:26:29.860Z,98802.22
2023-04-16T00:29:32.437Z,98787.56
2023-04-16T00:32:34.532Z,98792.09
2023-04-16T00:35:36.775Z,98799.69
2023-04-16T00:38:38.810Z,98794.38
2023-04-16T00:41:41.162Z,98802.53
2023-04-16T00:44:43.256Z,98799.91
2023-04-16T00:47:45.785Z,98800.50
2023-04-16T00:50:48.389Z,98793.69
2023-04-16T00:53:50.948Z,98792.69
2023-04-16T00:56:53.097Z,98795.28
2023-04-16T00:59:55.851Z,98795.47
2023-04-16T01:03:00.040Z,98809.59
2023-04-16T01:06:02.563Z,98798.22
2023-04-16T01:09:05.418Z,98795.91
2023-04-16T01:12:07.579Z,98788.44
2023-04-16T01:15:11.327Z,98781.63
2023-04-16T01:18:16.728Z,98787.81
2023-04-16T01:21:18.824Z,98782.63
2023-04-16T01:24:21.036Z,98784.00
2023-04-16T01:27:23.107Z,98790.81
2023-04-16T01:30:25.464Z,98788.59
2023-04-16T01:33:40.352Z,98787.66
2023-04-16T01:36:42.746Z,98788.31
2023-04-16T01:39:44.834Z,98795.78
2023-04-16T01:42:47.014Z,98790.88
2023-04-16T01:45:49.217Z,98789.22
2023-04-16T01:48:54.856Z,98780.81
2023-04-16T01:51:57.306Z,98790.69
2023-04-16T01:54:59.532Z,98801.19
2023-04-16T01:58:01.708Z,98805.72
2023-04-16T02:01:08.254Z,98808.22
2023-04-16T02:04:12.076Z,98805.72
2023-04-16T02:07:14.755Z,98810.63
2023-04-16T02:10:17.260Z,98810.00
2023-04-16T02:13:19.964Z,98812.72
2023-04-16T02:16:23.463Z,98810.13
2023-04-16T02:19:28.470Z,98805.97
2023-04-16T02:22:31.099Z,98808.75
2023-04-16T02:25:33.217Z,98816.50
2023-04-16T02:28:35.871Z,98821.66
2023-04-16T02:31:38.558Z,98819.81
2023-04-16T02:34:42.789Z,98819.25
2023-04-16T02:37:45.523Z,98813.81
2023-04-16T02:40:48.009Z,98820.09
2023-04-16T02:43:52.052Z,98820.94
2023-04-16T02:46:54.396Z,98823.22
2023-04-16T02:49:56.805Z,98816.03
2023-04-16T02:52:59.445Z,98821.94
2023-04-16T02:56:01.733Z,98822.78
2023-04-16T02:59:04.182Z,98822.13
2023-04-16T03:02:06.507Z,98823.50
2023-04-16T03:05:09.177Z,98829.41
2023-04-16T03:08:11.941Z,98818.03
2023-04-16T03:11:14.274Z,98816.91
2023-04-16T03:14:16.399Z,98826.28
2023-04-16T03:17:18.918Z,98817.44
2023-04-16T03:20:21.219Z,98818.59
2023-04-16T03:23:23.419Z,98819.41
2023-04-16T03:26:26.336Z,98829.31
2023-04-16T03:29:28.748Z,98839.72
2023-04-16T03:32:32.018Z,98847.44
2023-04-16T03:35:34.487Z,98854.16
2023-04-16T03:38:37.949Z,98850.38
2023-04-16T03:41:40.121Z,98854.59
2023-04-16T03:44:42.268Z,98860.00
2023-04-16T03:47:45.261Z,98865.19
2023-04-16T03:50:50.812Z,98871.47
2023-04-16T03:53:55.358Z,98876.28
2023-04-16T03:56:58.363Z,98885.06
2023-04-16T04:00:01.055Z,98879.72
2023-04-16T04:03:05.718Z,98878.81
2023-04-16T04:06:09.594Z,98876.34
2023-04-16T04:09:12.266Z,98884.56
2023-04-16T04:12:14.473Z,98890.66
2023-04-16T04:15:18.896Z,98888.06
2023-04-16T04:18:21.114Z,98891.00
2023-04-16T04:21:23.217Z,98892.59
2023-04-16T04:24:26.334Z,98911.44
2023-04-16T04:27:28.507Z,98911.22
2023-04-16T04:30:30.753Z,98913.31
2023-04-16T04:33:32.934Z,98908.09
2023-04-16T04:36:35.040Z,98903.16
2023-04-16T04:39:37.403Z,98902.41
2023-04-16T04:42:39.558Z,98901.47
2023-04-16T04:45:41.928Z,98889.03
2023-04-16T04:48:44.338Z,98895.19
2023-04-16T04:51:46.521Z,98895.44
2023-04-16T04:54:48.604Z,98907.59
2023-04-16T04:57:50.734Z,98918.03
2023-04-16T05:00:52.885Z,98914.97
2023-04-16T05:03:55.145Z,98920.44
2023-04-16T05:06:57.248Z,98927.94
2023-04-16T05:09:59.325Z,98925.03
2023-04-16T05:13:01.795Z,98927.91
2023-04-16T05:16:04.007Z,98920.78
2023-04-16T05:19:06.090Z,98915.53
2023-04-16T05:22:08.156Z,98913.81
2023-04-16T05:25:10.424Z,98916.31
2023-04-16T05:28:12.463Z,98914.25
2023-04-16T05:31:14.659Z,98925.84
2023-04-16T05:34:16.775Z,98915.56
2023-04-16T05:37:18.833Z,98925.41
2023-04-16T05:40:21.006Z,98936.06
2023-04-16T05:43:23.117Z,98926.50
2023-04-16T05:46:25.253Z,98934.22
2023-04-16T05:49:27.443Z,98948.72
2023-04-16T05:52:29.489Z,98969.31
2023-04-16T05:55:31.846Z,98970.22
2023-04-16T05:58:33.909Z,98971.59
2023-04-16T06:01:36.102Z,98970.66
2023-04-16T06:04:38.202Z,98967.03
2023-04-16T06:07:40.288Z,98969.69
2023-04-16T06:10:42.355Z,98974.72
2023-04-16T06:13:44.477Z,98962.19
2023-04-16T06:16:46.937Z,98966.72
2023-04-16T06:19:49.090Z,98965.47
2023-04-16T06:22:51.165Z,98966.16
2023-04-16T06:25:53.272Z,98961.78
2023-04-16T06:28:55.609Z,98963.44
2023-04-16T06:31:57.666Z,98967.13
2023-04-16T06:34:59.798Z,98964.88
2023-04-16T06:38:01.961Z,98960.72
2023-04-16T06:41:05.348Z,98957.41
2023-04-16T06:44:07.398Z,98962.81
2023-04-16T06:47:09.596Z,98963.53
2023-04-16T06:50:11.759Z,98969.41
2023-04-16T06:53:13.884Z,98966.78
2023-04-16T06:56:16.078Z,98957.25
2023-04-16T06:59:18.277Z,98955.59
2023-04-16T07:02:20.551Z,98945.78
2023-04-16T07:05:22.676Z,98957.97
2023-04-16T07:08:25.003Z,98953.47
2023-04-16T07:11:27.463Z,98957.06
2023-04-16T07:14:29.734Z,98957.25
2023-04-16T07:17:31.793Z,98966.91
2023-04-16T07:20:33.914Z,98979.22
2023-04-16T07:23:36.022Z,98967.50
2023-04-16T07:26:38.136Z,98967.91
2023-04-16T07:29:40.975Z,98968.50
2023-04-16T07:32:43.154Z,98979.25
2023-04-16T07:35:45.468Z,98974.28
2023-04-16T07:38:47.522Z,98972.44
2023-04-16T07:41:49.619Z,98966.91
2023-04-16T07:44:51.790Z,98959.34
2023-04-16T07:47:53.890Z,98961.22
2023-04-16T07:50:56.403Z,98970.25
2023-04-16T07:53:58.482Z,98969.34
2023-04-16T07:57:00.729Z,98975.25
2023-04-16T08:00:05.074Z,98975.25
2023-04-16T08:03:16.298Z,98967.22
2023-04-16T08:06:18.516Z,98964.19
2023-04-16T08:09:21.781Z,98970.06
2023-04-16T08:12:24.117Z,98960.75
2023-04-16T08:15:26.653Z,98951.22
2023-04-16T08:18:28.756Z,98965.38
2023-04-16T08:21:31.674Z,98966.66
2023-04-16T08:24:33.725Z,98968.75
2023-04-16T08:27:35.811Z,98958.00
2023-04-16T08:30:37.881Z,98967.91
2023-04-16T08:33:40.484Z,98958.34
2023-04-16T08:36:42.608Z,98964.69
2023-04-16T08:39:44.676Z,98971.41
2023-04-16T08:42:53.677Z,98971.72
2023-04-16T08:45:57.017Z,98977.00
2023-04-16T08:48:59.299Z,98981.59
2023-04-16T08:52:04.420Z,98981.66
2023-04-16T08:55:14.586Z,98978.88
2023-04-16T08:58:21.447Z,98991.75
2023-04-16T09:01:24.821Z,98992.78
2023-04-16T09:04:28.555Z,98991.44
2023-04-16T09:07:32.086Z,98995.94
2023-04-16T09:10:34.783Z,98990.38
2023-04-16T09:13:37.501Z,98998.84
2023-04-16T09:16:39.870Z,98997.38
2023-04-16T09:19:42.099Z,98997.53
2023-04-16T09:22:44.215Z,98995.97
2023-04-16T09:25:46.500Z,99004.22
2023-04-16T09:28:50.870Z,99006.25
2023-04-16T09:32:06.167Z,99014.44
2023-04-16T09:35:08.618Z,98996.78
2023-04-16T09:38:10.696Z,99001.16
2023-04-16T09:41:13.635Z,99007.53
2023-04-16T09:44:15.843Z,99013.09
2023-04-16T09:47:17.984Z,99016.38
2023-04-16T09:50:20.241Z,99014.00
2023-04-16T09:53:30.160Z,99021.69
2023-04-16T09:56:32.287Z,99019.94
2023-04-16T09:59:35.841Z,99022.09
2023-04-16T10:02:41.725Z,99014.31
2023-04-16T10:05:44.604Z,99015.91
2023-04-16T10:08:50.557Z,99008.75
2023-04-16T10:11:52.770Z,99011.22
2023-04-16T10:14:54.844Z,99008.13
2023-04-16T10:17:57.188Z,99004.31
2023-04-16T10:20:59.989Z,99010.22
2023-04-16T10:24:02.932Z,99013.78
2023-04-16T10:27:05.094Z,99015.59
2023-04-16T10:30:09.509Z,99006.66
2023-04-16T10:33:11.846Z,99006.47
2023-04-16T10:36:15.366Z,99010.59
2023-04-16T10:39:18.647Z,99013.91
2023-04-16T10:42:21.821Z,99017.44
2023-04-16T10:45:37.691Z,99012.50
2023-04-16T10:48:49.897Z,99017.63
2023-04-16T10:52:00.074Z,99017.47
2023-04-16T10:55:02.179Z,99012.03
2023-04-16T10:58:24.183Z,99010.03
2023-04-16T11:01:36.241Z,99007.91
2023-04-16T11:04:39.809Z,99008.69
2023-04-16T11:07:49.309Z,99008.00
2023-04-16T11:10:51.800Z,99004.56
2023-04-16T11:13:55.620Z,99004.63
2023-04-16T11:16:57.717Z,99006.47
2023-04-16T11:19:59.817Z,99010.91
2023-04-16T11:23:01.963Z,99002.69
2023-04-16T11:26:04.103Z,99002.44
2023-04-16T11:29:13.401Z,99001.22
2023-04-16T11:32:22.752Z,98995.06
2023-04-16T11:35:25.061Z,98997.59
2023-04-16T11:38:34.394Z,98998.41
2023-04-16T11:41:42.427Z,98989.09
2023-04-16T11:44:44.513Z,98989.53
2023-04-16T11:47:47.433Z,98994.47
2023-04-16T11:50:59.099Z,98970.88
2023-04-16T11:54:02.105Z,98976.00
2023-04-16T11:57:07.204Z,98975.78
2023-04-16T12:00:13.864Z,98972.47
2023-04-16T12:03:19.042Z,98981.63
2023-04-16T12:06:22.726Z,98981.50
2023-04-16T12:09:27.343Z,98988.47
2023-04-16T12:12:31.630Z,98976.28
2023-04-16T12:15:46.284Z,98963.06
2023-04-16T12:19:02.128Z,98966.38
2023-04-16T12:22:04.152Z,98966.31
2023-04-16T12:25:12.024Z,98967.47
2023-04-16T12:28:14.354Z,98959.81
2023-04-16T12:31:36.654Z,98958.38
2023-04-16T12:34:50.104Z,98960.09
2023-04-16T12:37:52.305Z,98962.97
2023-04-16T12:40:56.995Z,98959.16
2023-04-16T12:44:06.761Z,98954.50
2023-04-16T12:47:08.882Z,98956.06
2023-04-16T12:50:11.170Z,98950.56
2023-04-16T12:53:13.291Z,98951.50
2023-04-16T12:56:15.696Z,98947.91
2023-04-16T12:59:18.086Z,98948.22
2023-04-16T13:02:20.270Z,98945.66
2023-04-16T13:05:22.465Z,98927.94
2023-04-16T13:08:24.565Z,98933.50
2023-04-16T13:11:26.955Z,98927.72
2023-04-16T13:14:28.995Z,98926.13
2023-04-16T13:17:31.276Z,98921.25
2023-04-16T13:20:33.378Z,98922.25
2023-04-16T13:23:35.601Z,98916.19
2023-04-16T13:26:37.731Z,98917.56
2023-04-16T13:29:39.788Z,98915.19
2023-04-16T13:32:41.912Z,98916.91
2023-04-16T13:35:44.102Z,98919.81
2023-04-16T13:38:46.158Z,98908.94
2023-04-16T13:41:49.124Z,98912.28
2023-04-16T13:44:54.181Z,98913.84
2023-04-16T13:47:56.440Z,98907.56
2023-04-16T13:50:58.590Z,98907.47
2023-04-16T13:54:00.674Z,98893.53
2023-04-16T13:57:02.864Z,98889.13
2023-04-16T14:00:05.334Z,98882.91
2023-04-16T14:03:07.792Z,98885.91
2023-04-16T14:06:09.948Z,98886.47
2023-04-16T14:09:12.108Z,98888.91
2023-04-16T14:12:14.271Z,98886.84
2023-04-16T14:15:16.541Z,98885.47
2023-04-16T14:18:18.635Z,98886.84
2023-04-16T14:21:20.968Z,98888.63
2023-04-16T14:24:23.071Z,98888.13
2023-04-16T14:27:25.217Z,98884.38
2023-04-16T14:30:27.320Z,98886.63
2023-04-16T14:33:29.445Z,98883.06
2023-04-16T14:36:31.629Z,98877.88
2023-04-16T14:39:33.834Z,98886.56
2023-04-16T14:42:38.854Z,98883.78
2023-04-16T14:45:41.229Z,98886.19
2023-04-16T14:48:43.750Z,98887.44
2023-04-16T14:51:46.604Z,98881.44
2023-04-16T14:54:48.722Z,98887.69
2023-04-16T14:57:51.332Z,98881.94
2023-04-16T15:00:53.592Z,98884.50
2023-04-16T15:03:56.618Z,98874.13
2023-04-16T15:06:59.477Z,98874.09
2023-04-16T15:10:02.022Z,98865.50
2023-04-16T15:13:04.250Z,98868.25
2023-04-16T15:16:08.643Z,98865.63
2023-04-16T15:19:10.942Z,98865.38
2023-04-16T15:22:15.284Z,98870.44
2023-04-16T15:25:17.409Z,98863.00
2023-04-16T15:28:19.915Z,98858.03
2023-04-16T15:31:22.397Z,98866.47
2023-04-16T15:34:24.949Z,98866.47
2023-04-16T15:37:27.382Z,98865.38
2023-04-16T15:40:30.405Z,98875.63
2023-04-16T15:43:32.567Z,98873.69
2023-04-16T15:46:34.798Z,98873.16
2023-04-16T15:49:37.495Z,98876.34
2023-04-16T15:52:40.654Z,98875.63
2023-04-16T15:55:43.045Z,98873.56
2023-04-16T15:58:45.193Z,98876.81
2023-04-16T16:01:47.687Z,98870.66
2023-04-16T16:04:49.882Z,98867.63
2023-04-16T16:07:52.179Z,98872.19
2023-04-16T16:10:54.843Z,98872.66
2023-04-16T16:13:57.322Z,98869.81
2023-04-16T16:16:59.857Z,98871.94
2023-04-16T16:20:02.094Z,98877.38
2023-04-16T16:23:04.666Z,98873.78
2023-04-16T16:26:07.336Z,98877.25
2023-04-16T16:29:09.839Z,98882.72
2023-04-16T16:32:12.434Z,98883.16
2023-04-16T16:35:14.842Z,98882.53
2023-04-16T16:38:18.052Z,98882.53
2023-04-16T16:41:20.751Z,98887.84
2023-04-16T16:44:23.225Z,98884.34
2023-04-16T16:47:25.747Z,98885.09
2023-04-16T16:50:27.985Z,98876.63
2023-04-16T16:53:30.171Z,98884.22
2023-04-16T16:56:32.545Z,98887.38
2023-04-16T16:59:34.997Z,98881.34
2023-04-16T17:02:37.817Z,98892.66
2023-04-16T17:05:40.825Z,98890.19
2023-04-16T17:08:42.985Z,98898.19
2023-04-16T17:11:45.100Z,98899.09
2023-04-16T17:14:49.747Z,98894.66
2023-04-16T17:17:51.935Z,98895.00
2023-04-16T17:20:54.249Z,98896.00
2023-04-16T17:23:58.379Z,98900.44
2023-04-16T17:27:01.708Z,98898.38
2023-04-16T17:30:05.615Z,98894.06
2023-04-16T17:33:07.791Z,98892.56
2023-04-16T17:36:57.671Z,98890.25
2023-04-16T17:40:00.244Z,98902.09
2023-04-16T17:43:02.734Z,98916.50
2023-04-16T17:46:05.098Z,98918.44
2023-04-16T17:49:36.782Z,98920.25
2023-04-16T17:52:39.526Z,98920.63
2023-04-16T17:55:49.864Z,98925.97
2023-04-16T17:58:52.363Z,98933.22
2023-04-16T18:01:54.912Z,98929.56
2023-04-16T18:04:57.306Z,98925.25
2023-04-16T18:07:59.739Z,98926.34
2023-04-16T18:11:05.699Z,98929.19
2023-04-16T18:14:09.928Z,98922.13
2023-04-16T18:17:13.389Z,98918.13
2023-04-16T18:20:19.364Z,98918.09
2023-04-16T18:23:21.593Z,98909.72
2023-04-16T18:26:25.295Z,98912.69
2023-04-16T18:29:27.519Z,98922.22
2023-04-16T18:32:31.250Z,98914.09
2023-04-16T18:35:37.261Z,98909.25
2023-04-16T18:38:52.952Z,98912.22
2023-04-16T18:42:06.747Z,98922.69
2023-04-16T18:45:14.054Z,98932.38
2023-04-16T18:48:21.277Z,98926.94
2023-04-16T18:51:23.462Z,98924.94
2023-04-16T18:54:26.239Z,98930.00
2023-04-16T18:57:28.385Z,98933.31
2023-04-16T19:00:31.052Z,98930.59
2023-04-16T19:03:37.782Z,98932.00
2023-04-16T19:06:40.443Z,98935.03
2023-04-16T19:09:45.313Z,98938.56
2023-04-16T19:12:47.395Z,98932.41
2023-04-16T19:15:49.605Z,98931.22
2023-04-16T19:18:52.259Z,98938.84
2023-04-16T19:21:54.523Z,98937.19
2023-04-16T19:24:56.709Z,98933.53
2023-04-16T19:27:58.805Z,98933.53
2023-04-16T19:31:01.064Z,98923.25
2023-04-16T19:34:04.098Z,98931.38
2023-04-16T19:37:06.271Z,98919.81
2023-04-16T19:40:08.709Z,98920.03
2023-04-16T19:43:10.904Z,98921.47
2023-04-16T19:46:13.243Z,98916.03
2023-04-16T19:49:15.445Z,98914.03
2023-04-16T19:52:17.872Z,98911.53
2023-04-16T19:55:20.014Z,98914.75
2023-04-16T19:58:22.086Z,98914.25
2023-04-16T20:01:25.093Z,98911.69
2023-04-16T20:04:27.436Z,98918.88
2023-04-16T20:07:32.902Z,98914.63
2023-04-16T20:10:35.213Z,98913.78
2023-04-16T20:13:37.925Z,98917.41
2023-04-16T20:16:40.966Z,98907.97
2023-04-16T20:19:47.496Z,98903.81
2023-04-16T20:22:49.893Z,98904.63
2023-04-16T20:25:52.374Z,98903.75
2023-04-16T20:28:54.598Z,98902.81
2023-04-16T20:31:56.714Z,98895.53
2023-04-16T20:34:58.822Z,98900.72
2023-04-16T20:38:01.133Z,98902.38
2023-04-16T20:41:12.590Z,98904.47
2023-04-16T20:44:18.236Z,98908.59
2023-04-16T20:47:22.084Z,98907.78
2023-04-16T20:50:25.398Z,98901.53
2023-04-16T20:53:28.049Z,98909.88
2023-04-16T20:56:30.130Z,98909.28
2023-04-16T20:59:32.183Z,98907.28
2023-04-16T21:02:34.491Z,98908.78
2023-04-16T21:05:36.952Z,98908.84
2023-04-16T21:08:43.546Z,98907.19
2023-04-16T21:11:45.906Z,98901.91
2023-04-16T21:14:47.952Z,98904.34
2023-04-16T21:17:50.126Z,98897.72
2023-04-16T21:20:52.292Z,98891.72
2023-04-16T21:23:54.457Z,98889.09
2023-04-16T21:26:57.515Z,98890.22
2023-04-16T21:30:00.420Z,98892.13
2023-04-16T21:33:03.374Z,98886.31
2023-04-16T21:36:05.700Z,98884.69
2023-04-16T21:39:07.920Z,98882.66
2023-04-16T21:42:10.135Z,98890.16
2023-04-16T21:45:12.637Z,98888.28
2023-04-16T21:48:14.723Z,98879.88
2023-04-16T21:51:18.213Z,98877.41
2023-04-16T21:54:20.687Z,98878.00
2023-04-16T21:57:22.736Z,98872.22
2023-04-16T22:00:24.882Z,98871.91
2023-04-16T22:03:28.190Z,98866.06
2023-04-16T22:06:30.512Z,98865.16
2023-04-16T22:09:32.574Z,98866.78
2023-04-16T22:12:37.918Z,98872.75
2023-04-16T22:15:40.703Z,98865.91
2023-04-16T22:18:43.010Z,98869.50
2023-04-16T22:21:45.423Z,98871.16
2023-04-16T22:24:47.521Z,98863.19
2023-04-16T22:27:49.606Z,98864.03
2023-04-16T22:30:51.724Z,98865.22
2023-04-16T22:33:54.019Z,98861.47
2023-04-16T22:36:56.351Z,98857.47
2023-04-16T22:39:58.457Z,98851.84
2023-04-16T22:43:03.265Z,98858.47
2023-04-16T22:46:06.576Z,98855.28
2023-04-16T22:49:10.479Z,98854.09
2023-04-16T22:52:12.720Z,98853.88
2023-04-16T22:55:14.853Z,98850.13
2023-04-16T22:58:17.127Z,98842.00
2023-04-16T23:01:19.334Z,98838.38
2023-04-16T23:04:21.531Z,98840.63
2023-04-16T23:07:23.616Z,98837.47
2023-04-16T23:10:25.661Z,98836.41
2023-04-16T23:13:27.788Z,98839.94
2023-04-16T23:16:29.879Z,98837.47
2023-04-16T23:19:32.360Z,98835.00
2023-04-16T23:22:34.539Z,98831.00
2023-04-16T23:25:36.774Z,98832.44
2023-04-16T23:28:38.878Z,98829.50
2023-04-16T23:31:41.190Z,98821.00
2023-04-16T23:34:43.352Z,98825.00
2023-04-16T23:37:45.559Z,98818.41
2023-04-16T23:40:47.592Z,98818.47
2023-04-16T23:43:49.613Z,98819.31
2023-04-16T23:46:51.754Z,98816.00
2023-04-16T23:49:53.856Z,98811.41
2023-04-16T23:52:55.959Z,98813.66
2023-04-16T23:55:58.086Z,98808.84
2023-04-16T23:59:00.225Z,98810.06
